Terminal Aerodrome Forecast
Issued by NWS Charleston, SC

Home | Current Version | Previous Version | Text Only | Print | Product List | Glossary On
Versions: 1 2 3 4 5 6 7 8 9 10 11 12 13
666
FTUS42 KCHS 121332 AAA
TAFCHS
TAF AMD
KCHS 121332Z 1214/1312 VRB05KT P6SM SCT010 BKN018 OVC060
     FM121900 31008KT P6SM BKN025
     FM122300 30007KT P6SM SCT050=

USA.gov is the U.S. government's official web portal to all federal, state and local government web resources and services.